sensor_id;sensor_type;location;lat;lon;timestamp;pressure;altitude;pressure_sealevel;temperature;humidity
76519;BME280;67029;51.054;13.798;2023-09-12T00:01:14;99973.20;;;24.55;52.98
76519;BME280;67029;51.054;13.798;2023-09-12T00:03:44;99971.61;;;24.51;52.68
76519;BME280;67029;51.054;13.798;2023-09-12T00:06:14;99968.14;;;24.47;52.57
76519;BME280;67029;51.054;13.798;2023-09-12T00:08:44;99970.52;;;24.48;53.17
76519;BME280;67029;51.054;13.798;2023-09-12T00:11:14;99971.61;;;24.46;53.19
76519;BME280;67029;51.054;13.798;2023-09-12T00:13:44;99974.30;;;24.45;53.30
76519;BME280;67029;51.054;13.798;2023-09-12T00:16:14;99975.03;;;24.42;53.11
76519;BME280;67029;51.054;13.798;2023-09-12T00:18:45;99973.87;;;24.41;53.52
76519;BME280;67029;51.054;13.798;2023-09-12T00:21:15;99977.18;;;24.39;53.51
76519;BME280;67029;51.054;13.798;2023-09-12T00:23:45;99976.88;;;24.37;53.26
76519;BME280;67029;51.054;13.798;2023-09-12T00:26:15;99977.55;;;24.35;53.47
76519;BME280;67029;51.054;13.798;2023-09-12T00:28:45;99977.06;;;24.31;53.61
76519;BME280;67029;51.054;13.798;2023-09-12T00:31:15;99973.34;;;24.27;53.75
76519;BME280;67029;51.054;13.798;2023-09-12T00:33:45;99974.52;;;24.23;53.73
76519;BME280;67029;51.054;13.798;2023-09-12T00:36:15;99971.98;;;24.18;53.68
76519;BME280;67029;51.054;13.798;2023-09-12T00:38:45;99971.72;;;24.11;53.80
76519;BME280;67029;51.054;13.798;2023-09-12T00:41:15;99972.20;;;24.07;53.57
76519;BME280;67029;51.054;13.798;2023-09-12T00:43:45;99965.95;;;23.99;53.39
76519;BME280;67029;51.054;13.798;2023-09-12T00:46:19;99968.35;;;23.96;53.65
76519;BME280;67029;51.054;13.798;2023-09-12T00:48:46;99968.80;;;23.96;54.09
76519;BME280;67029;51.054;13.798;2023-09-12T00:51:16;99967.06;;;23.95;54.16
76519;BME280;67029;51.054;13.798;2023-09-12T00:53:47;99970.56;;;23.93;54.38
76519;BME280;67029;51.054;13.798;2023-09-12T00:56:17;99974.48;;;23.89;54.28
76519;BME280;67029;51.054;13.798;2023-09-12T00:58:47;99974.78;;;23.88;54.36
76519;BME280;67029;51.054;13.798;2023-09-12T01:01:22;99969.74;;;23.85;54.54
76519;BME280;67029;51.054;13.798;2023-09-12T01:03:47;99976.35;;;23.80;54.70
76519;BME280;67029;51.054;13.798;2023-09-12T01:06:19;99982.61;;;23.75;54.61
76519;BME280;67029;51.054;13.798;2023-09-12T01:08:48;99978.02;;;23.70;54.62
76519;BME280;67029;51.054;13.798;2023-09-12T01:11:20;99980.20;;;23.66;54.83
76519;BME280;67029;51.054;13.798;2023-09-12T01:13:49;99980.11;;;23.63;54.88
76519;BME280;67029;51.054;13.798;2023-09-12T01:16:19;99978.42;;;23.57;54.74
76519;BME280;67029;51.054;13.798;2023-09-12T01:18:49;99983.33;;;23.53;54.62
76519;BME280;67029;51.054;13.798;2023-09-12T01:24:08;99987.64;;;23.43;54.85
76519;BME280;67029;51.054;13.798;2023-09-12T01:28:51;99987.45;;;23.37;55.19
76519;BME280;67029;51.054;13.798;2023-09-12T01:31:22;99984.53;;;23.32;55.07
76519;BME280;67029;51.054;13.798;2023-09-12T01:33:55;99984.55;;;23.30;55.04
76519;BME280;67029;51.054;13.798;2023-09-12T01:36:22;99985.06;;;23.25;55.13
76519;BME280;67029;51.054;13.798;2023-09-12T01:38:52;99981.11;;;23.21;55.05
76519;BME280;67029;51.054;13.798;2023-09-12T01:41:23;99978.60;;;23.18;55.37
76519;BME280;67029;51.054;13.798;2023-09-12T01:43:54;99979.51;;;23.17;55.39
76519;BME280;67029;51.054;13.798;2023-09-12T01:46:25;99980.62;;;23.14;55.40
76519;BME280;67029;51.054;13.798;2023-09-12T01:48:55;99981.09;;;23.11;55.32
76519;BME280;67029;51.054;13.798;2023-09-12T01:51:25;99986.48;;;23.08;55.36
76519;BME280;67029;51.054;13.798;2023-09-12T01:53:55;99982.62;;;23.05;55.50
76519;BME280;67029;51.054;13.798;2023-09-12T01:56:25;99981.27;;;23.04;55.80
76519;BME280;67029;51.054;13.798;2023-09-12T01:58:55;99978.55;;;23.02;55.79
76519;BME280;67029;51.054;13.798;2023-09-12T02:01:25;99978.58;;;22.97;55.80
76519;BME280;67029;51.054;13.798;2023-09-12T02:03:55;99984.61;;;22.97;55.93
76519;BME280;67029;51.054;13.798;2023-09-12T02:06:25;99984.91;;;22.95;55.85
76519;BME280;67029;51.054;13.798;2023-09-12T02:08:55;99987.01;;;22.92;56.06
76519;BME280;67029;51.054;13.798;2023-09-12T02:11:28;99987.42;;;22.89;56.01
76519;BME280;67029;51.054;13.798;2023-09-12T02:13:56;99991.05;;;22.89;56.01
76519;BME280;67029;51.054;13.798;2023-09-12T02:16:26;99988.71;;;22.86;55.92
76519;BME280;67029;51.054;13.798;2023-09-12T02:18:57;99987.56;;;22.87;55.92
76519;BME280;67029;51.054;13.798;2023-09-12T02:21:27;99983.52;;;22.84;55.82
76519;BME280;67029;51.054;13.798;2023-09-12T02:23:57;99987.98;;;22.84;56.06
76519;BME280;67029;51.054;13.798;2023-09-12T02:26:27;99987.94;;;22.80;55.82
76519;BME280;67029;51.054;13.798;2023-09-12T02:28:57;99984.14;;;22.77;55.90
76519;BME280;67029;51.054;13.798;2023-09-12T02:31:27;99986.12;;;22.75;56.06
76519;BME280;67029;51.054;13.798;2023-09-12T02:33:57;99987.31;;;22.71;55.89
76519;BME280;67029;51.054;13.798;2023-09-12T02:36:28;99989.81;;;22.68;56.26
76519;BME280;67029;51.054;13.798;2023-09-12T02:38:58;99990.93;;;22.66;56.19
76519;BME280;67029;51.054;13.798;2023-09-12T02:41:28;99992.38;;;22.63;56.31
76519;BME280;67029;51.054;13.798;2023-09-12T02:43:58;99991.91;;;22.59;56.30
76519;BME280;67029;51.054;13.798;2023-09-12T02:46:28;99993.49;;;22.57;56.26
76519;BME280;67029;51.054;13.798;2023-09-12T02:48:58;99993.01;;;22.55;56.66
76519;BME280;67029;51.054;13.798;2023-09-12T02:51:28;99993.98;;;22.55;56.37
76519;BME280;67029;51.054;13.798;2023-09-12T02:53:58;99990.92;;;22.51;56.31
76519;BME280;67029;51.054;13.798;2023-09-12T02:56:28;99987.92;;;22.49;56.35
76519;BME280;67029;51.054;13.798;2023-09-12T02:58:58;99989.36;;;22.47;56.61
76519;BME280;67029;51.054;13.798;2023-09-12T03:01:28;99993.25;;;22.43;56.26
76519;BME280;67029;51.054;13.798;2023-09-12T03:03:58;99991.53;;;22.39;56.47
76519;BME280;67029;51.054;13.798;2023-09-12T03:06:29;99993.27;;;22.39;56.44
76519;BME280;67029;51.054;13.798;2023-09-12T03:08:59;99992.41;;;22.36;56.89
76519;BME280;67029;51.054;13.798;2023-09-12T03:11:29;99991.23;;;22.31;56.91
76519;BME280;67029;51.054;13.798;2023-09-12T03:13:59;99988.38;;;22.29;56.97
76519;BME280;67029;51.054;13.798;2023-09-12T03:16:29;99987.80;;;22.28;57.02
76519;BME280;67029;51.054;13.798;2023-09-12T03:18:59;99988.12;;;22.25;56.80
76519;BME280;67029;51.054;13.798;2023-09-12T03:21:29;99985.12;;;22.23;57.24
76519;BME280;67029;51.054;13.798;2023-09-12T03:23:59;99981.77;;;22.20;57.14
76519;BME280;67029;51.054;13.798;2023-09-12T03:26:29;99979.97;;;22.19;57.26
76519;BME280;67029;51.054;13.798;2023-09-12T03:28:59;99981.94;;;22.17;57.48
76519;BME280;67029;51.054;13.798;2023-09-12T03:31:29;99978.92;;;22.14;57.30
76519;BME280;67029;51.054;13.798;2023-09-12T03:33:59;99975.33;;;22.13;57.34
76519;BME280;67029;51.054;13.798;2023-09-12T03:36:29;99975.39;;;22.06;57.07
76519;BME280;67029;51.054;13.798;2023-09-12T03:38:59;99978.14;;;22.03;57.01
76519;BME280;67029;51.054;13.798;2023-09-12T03:41:29;99982.69;;;22.00;57.08
76519;BME280;67029;51.054;13.798;2023-09-12T03:43:59;99977.23;;;21.99;57.28
76519;BME280;67029;51.054;13.798;2023-09-12T03:46:29;99977.41;;;21.94;57.00
76519;BME280;67029;51.054;13.798;2023-09-12T03:48:59;99977.58;;;21.88;56.98
76519;BME280;67029;51.054;13.798;2023-09-12T03:51:29;99976.81;;;21.77;57.44
76519;BME280;67029;51.054;13.798;2023-09-12T03:53:59;99975.72;;;21.73;57.44
76519;BME280;67029;51.054;13.798;2023-09-12T03:56:29;99977.31;;;21.76;57.87
76519;BME280;67029;51.054;13.798;2023-09-12T03:58:59;99974.05;;;21.76;57.31
76519;BME280;67029;51.054;13.798;2023-09-12T04:01:29;99977.17;;;21.77;57.56
76519;BME280;67029;51.054;13.798;2023-09-12T04:03:59;99983.51;;;21.78;57.66
76519;BME280;67029;51.054;13.798;2023-09-12T04:06:29;99987.44;;;21.78;57.68
76519;BME280;67029;51.054;13.798;2023-09-12T04:08:59;99989.56;;;21.78;57.83
76519;BME280;67029;51.054;13.798;2023-09-12T04:11:29;99986.02;;;21.78;57.83
76519;BME280;67029;51.054;13.798;2023-09-12T04:13:59;99985.85;;;21.76;57.60
76519;BME280;67029;51.054;13.798;2023-09-12T04:16:29;99986.12;;;21.69;57.47
76519;BME280;67029;51.054;13.798;2023-09-12T04:18:59;99989.41;;;21.72;57.78
76519;BME280;67029;51.054;13.798;2023-09-12T04:21:29;99988.70;;;21.74;58.01
76519;BME280;67029;51.054;13.798;2023-09-12T04:23:59;99988.01;;;21.72;57.85
76519;BME280;67029;51.054;13.798;2023-09-12T04:26:29;99985.39;;;21.64;57.55
76519;BME280;67029;51.054;13.798;2023-09-12T04:28:59;99988.56;;;21.64;57.85
76519;BME280;67029;51.054;13.798;2023-09-12T04:31:29;99990.12;;;21.63;57.65
76519;BME280;67029;51.054;13.798;2023-09-12T04:33:59;99988.95;;;21.64;57.86
76519;BME280;67029;51.054;13.798;2023-09-12T04:36:29;99983.90;;;21.63;57.86
76519;BME280;67029;51.054;13.798;2023-09-12T04:39:00;99986.57;;;21.62;57.46
76519;BME280;67029;51.054;13.798;2023-09-12T04:41:30;99981.05;;;21.62;57.71
76519;BME280;67029;51.054;13.798;2023-09-12T04:44:00;99980.64;;;21.65;57.79
76519;BME280;67029;51.054;13.798;2023-09-12T04:46:30;99982.61;;;21.62;57.40
76519;BME280;67029;51.054;13.798;2023-09-12T04:49:00;99979.98;;;21.63;57.76
76519;BME280;67029;51.054;13.798;2023-09-12T04:51:30;99983.62;;;21.64;57.72
76519;BME280;67029;51.054;13.798;2023-09-12T04:54:00;99979.06;;;21.62;57.68
76519;BME280;67029;51.054;13.798;2023-09-12T04:56:30;99978.08;;;21.62;57.71
76519;BME280;67029;51.054;13.798;2023-09-12T04:59:00;99978.33;;;21.61;57.64
76519;BME280;67029;51.054;13.798;2023-09-12T05:01:32;99977.81;;;21.63;57.93
76519;BME280;67029;51.054;13.798;2023-09-12T05:04:01;99977.69;;;21.59;57.45
76519;BME280;67029;51.054;13.798;2023-09-12T05:06:31;99981.22;;;21.55;57.77
76519;BME280;67029;51.054;13.798;2023-09-12T05:09:01;99976.45;;;21.55;57.69
76519;BME280;67029;51.054;13.798;2023-09-12T05:11:31;99976.61;;;21.48;57.72
76519;BME280;67029;51.054;13.798;2023-09-12T05:14:01;99974.46;;;21.40;58.27
76519;BME280;67029;51.054;13.798;2023-09-12T05:16:31;99974.96;;;21.39;58.11
76519;BME280;67029;51.054;13.798;2023-09-12T05:19:05;99983.75;;;21.34;58.19
76519;BME280;67029;51.054;13.798;2023-09-12T05:21:48;99986.97;;;21.40;58.12
76519;BME280;67029;51.054;13.798;2023-09-12T05:24:08;99988.55;;;21.46;58.01
76519;BME280;67029;51.054;13.798;2023-09-12T05:26:34;99989.42;;;21.49;58.06
76519;BME280;67029;51.054;13.798;2023-09-12T05:29:29;99982.97;;;21.54;57.90
76519;BME280;67029;51.054;13.798;2023-09-12T05:41:36;99995.65;;;21.97;57.09
76519;BME280;67029;51.054;13.798;2023-09-12T05:44:06;99996.12;;;21.95;56.93
76519;BME280;67029;51.054;13.798;2023-09-12T05:46:36;99996.10;;;21.94;56.78
76519;BME280;67029;51.054;13.798;2023-09-12T05:49:07;99999.17;;;21.96;56.72
76519;BME280;67029;51.054;13.798;2023-09-12T05:51:37;99999.94;;;21.95;56.79
76519;BME280;67029;51.054;13.798;2023-09-12T05:54:07;100006.55;;;21.97;56.92
76519;BME280;67029;51.054;13.798;2023-09-12T05:56:37;100003.84;;;21.96;56.88
76519;BME280;67029;51.054;13.798;2023-09-12T05:59:07;100004.89;;;21.91;56.86
76519;BME280;67029;51.054;13.798;2023-09-12T06:01:44;100010.19;;;21.91;57.16
76519;BME280;67029;51.054;13.798;2023-09-12T06:04:10;100013.27;;;21.97;57.24
76519;BME280;67029;51.054;13.798;2023-09-12T06:06:38;100014.57;;;21.99;57.11
76519;BME280;67029;51.054;13.798;2023-09-12T06:09:09;100019.80;;;21.94;57.29
76519;BME280;67029;51.054;13.798;2023-09-12T06:11:39;100018.49;;;21.95;57.07
76519;BME280;67029;51.054;13.798;2023-09-12T06:14:09;100017.48;;;22.00;57.14
76519;BME280;67029;51.054;13.798;2023-09-12T06:16:39;100015.73;;;22.07;56.97
76519;BME280;67029;51.054;13.798;2023-09-12T06:19:09;100022.09;;;22.19;57.17
76519;BME280;67029;51.054;13.798;2023-09-12T06:21:39;100023.91;;;22.33;56.90
76519;BME280;67029;51.054;13.798;2023-09-12T06:24:11;100020.98;;;22.43;56.73
76519;BME280;67029;51.054;13.798;2023-09-12T06:26:39;100017.33;;;22.54;56.67
76519;BME280;67029;51.054;13.798;2023-09-12T06:29:10;100022.03;;;22.62;56.46
76519;BME280;67029;51.054;13.798;2023-09-12T06:31:40;100022.11;;;22.75;56.29
76519;BME280;67029;51.054;13.798;2023-09-12T06:34:10;100028.43;;;22.78;56.39
76519;BME280;67029;51.054;13.798;2023-09-12T06:36:40;100026.98;;;22.77;56.34
76519;BME280;67029;51.054;13.798;2023-09-12T06:39:10;100030.62;;;22.67;56.39
76519;BME280;67029;51.054;13.798;2023-09-12T06:41:40;100036.91;;;22.72;56.20
76519;BME280;67029;51.054;13.798;2023-09-12T06:44:10;100032.45;;;22.74;56.36
76519;BME280;67029;51.054;13.798;2023-09-12T06:46:40;100031.75;;;22.69;56.51
76519;BME280;67029;51.054;13.798;2023-09-12T06:49:10;100032.19;;;22.76;56.36
76519;BME280;67029;51.054;13.798;2023-09-12T06:51:40;100034.55;;;22.92;56.05
76519;BME280;67029;51.054;13.798;2023-09-12T06:54:10;100034.06;;;23.08;55.78
76519;BME280;67029;51.054;13.798;2023-09-12T06:56:40;100034.20;;;23.26;55.48
76519;BME280;67029;51.054;13.798;2023-09-12T06:59:10;100033.03;;;23.45;55.29
76519;BME280;67029;51.054;13.798;2023-09-12T07:01:40;100034.38;;;23.66;54.92
76519;BME280;67029;51.054;13.798;2023-09-12T07:04:10;100032.81;;;23.83;54.81
76519;BME280;67029;51.054;13.798;2023-09-12T07:06:40;100030.66;;;24.13;54.10
76519;BME280;67029;51.054;13.798;2023-09-12T07:09:10;100028.77;;;24.39;53.63
76519;BME280;67029;51.054;13.798;2023-09-12T07:11:41;100034.72;;;24.65;53.32
76519;BME280;67029;51.054;13.798;2023-09-12T07:14:11;100033.38;;;24.96;52.94
76519;BME280;67029;51.054;13.798;2023-09-12T07:16:41;100034.22;;;25.26;52.62
76519;BME280;67029;51.054;13.798;2023-09-12T07:19:11;100032.18;;;25.58;52.18
76519;BME280;67029;51.054;13.798;2023-09-12T07:21:41;100037.00;;;25.88;51.48
76519;BME280;67029;51.054;13.798;2023-09-12T07:24:11;100035.23;;;26.09;51.02
76519;BME280;67029;51.054;13.798;2023-09-12T07:26:41;100033.20;;;26.38;50.52
76519;BME280;67029;51.054;13.798;2023-09-12T07:29:14;100033.50;;;26.69;50.12
76519;BME280;67029;51.054;13.798;2023-09-12T07:31:42;100032.38;;;27.03;48.65
76519;BME280;67029;51.054;13.798;2023-09-12T07:34:16;100036.00;;;27.38;48.19
76519;BME280;67029;51.054;13.798;2023-09-12T07:36:43;100031.15;;;27.68;47.79
76519;BME280;67029;51.054;13.798;2023-09-12T07:39:13;100031.36;;;27.97;47.33
76519;BME280;67029;51.054;13.798;2023-09-12T07:59:16;100036.12;;;28.29;46.77
76519;BME280;67029;51.054;13.798;2023-09-12T08:01:46;100033.55;;;28.84;45.07
76519;BME280;67029;51.054;13.798;2023-09-12T08:04:17;100034.59;;;29.45;43.41
76519;BME280;67029;51.054;13.798;2023-09-12T08:06:46;100030.27;;;30.01;42.57
76519;BME280;67029;51.054;13.798;2023-09-12T08:09:19;100032.67;;;30.47;42.32
76519;BME280;67029;51.054;13.798;2023-09-12T08:11:47;100032.88;;;30.97;40.63
76519;BME280;67029;51.054;13.798;2023-09-12T08:14:20;100027.49;;;31.40;39.46
76519;BME280;67029;51.054;13.798;2023-09-12T08:16:50;100035.23;;;31.78;38.31
76519;BME280;67029;51.054;13.798;2023-09-12T08:19:18;100029.34;;;32.13;37.54
76519;BME280;67029;51.054;13.798;2023-09-12T08:21:48;100036.49;;;32.40;36.88
76519;BME280;67029;51.054;13.798;2023-09-12T08:24:18;100039.76;;;32.67;36.57
76519;BME280;67029;51.054;13.798;2023-09-12T08:26:48;100038.80;;;32.95;36.90
76519;BME280;67029;51.054;13.798;2023-09-12T08:29:18;100034.59;;;33.28;36.19
76519;BME280;67029;51.054;13.798;2023-09-12T08:31:48;100034.33;;;33.62;35.51
76519;BME280;67029;51.054;13.798;2023-09-12T08:34:18;100036.93;;;33.91;34.82
76519;BME280;67029;51.054;13.798;2023-09-12T08:36:48;100036.11;;;34.18;34.46
76519;BME280;67029;51.054;13.798;2023-09-12T08:39:23;100035.91;;;34.43;34.06
76519;BME280;67029;51.054;13.798;2023-09-12T08:41:49;100036.77;;;34.72;33.29
76519;BME280;67029;51.054;13.798;2023-09-12T08:44:20;100046.45;;;35.00;32.90
76519;BME280;67029;51.054;13.798;2023-09-12T08:46:49;100044.88;;;35.26;32.37
76519;BME280;67029;51.054;13.798;2023-09-12T08:49:19;100045.31;;;35.51;32.14
76519;BME280;67029;51.054;13.798;2023-09-12T08:51:50;100045.91;;;35.77;31.77
76519;BME280;67029;51.054;13.798;2023-09-12T08:54:20;100039.87;;;36.04;30.73
76519;BME280;67029;51.054;13.798;2023-09-12T08:56:50;100039.70;;;36.29;30.03
76519;BME280;67029;51.054;13.798;2023-09-12T08:59:20;100042.80;;;36.49;29.79
76519;BME280;67029;51.054;13.798;2023-09-12T09:01:50;100040.14;;;36.68;29.09
76519;BME280;67029;51.054;13.798;2023-09-12T09:04:20;100036.46;;;36.88;29.61
76519;BME280;67029;51.054;13.798;2023-09-12T09:06:51;100034.67;;;37.18;29.39
76519;BME280;67029;51.054;13.798;2023-09-12T09:09:22;100030.91;;;37.42;28.46
76519;BME280;67029;51.054;13.798;2023-09-12T09:14:25;100022.85;;;38.15;27.62
76519;BME280;67029;51.054;13.798;2023-09-12T09:16:53;100024.71;;;38.50;27.02
76519;BME280;67029;51.054;13.798;2023-09-12T09:22:04;100018.62;;;39.24;25.94
76519;BME280;67029;51.054;13.798;2023-09-12T09:24:24;100014.42;;;39.58;24.94
76519;BME280;67029;51.054;13.798;2023-09-12T09:26:54;100014.00;;;39.86;24.67
76519;BME280;67029;51.054;13.798;2023-09-12T09:29:24;100015.92;;;40.08;24.20
76519;BME280;67029;51.054;13.798;2023-09-12T09:32:00;100011.84;;;40.26;24.33
76519;BME280;67029;51.054;13.798;2023-09-12T09:34:30;100011.80;;;40.52;24.35
76519;BME280;67029;51.054;13.798;2023-09-12T09:36:56;100015.75;;;40.72;23.61
76519;BME280;67029;51.054;13.798;2023-09-12T09:39:28;100018.59;;;40.88;23.54
76519;BME280;67029;51.054;13.798;2023-09-12T09:41:57;100013.56;;;41.09;23.43
76519;BME280;67029;51.054;13.798;2023-09-12T09:44:27;100011.65;;;41.35;23.16
76519;BME280;67029;51.054;13.798;2023-09-12T09:47:00;100011.80;;;41.65;22.65
76519;BME280;67029;51.054;13.798;2023-09-12T09:49:32;100004.70;;;41.88;21.57
76519;BME280;67029;51.054;13.798;2023-09-12T09:51:58;100001.73;;;42.10;21.70
76519;BME280;67029;51.054;13.798;2023-09-12T09:54:32;100000.24;;;42.36;21.31
76519;BME280;67029;51.054;13.798;2023-09-12T09:57:04;99999.72;;;42.68;21.22
76519;BME280;67029;51.054;13.798;2023-09-12T09:59:30;100003.77;;;43.02;20.49
76519;BME280;67029;51.054;13.798;2023-09-12T10:02:00;100000.38;;;43.27;19.93
76519;BME280;67029;51.054;13.798;2023-09-12T10:04:42;99996.82;;;43.47;19.81
76519;BME280;67029;51.054;13.798;2023-09-12T10:07:01;100001.16;;;43.70;20.11
76519;BME280;67029;51.054;13.798;2023-09-12T10:09:34;100001.73;;;43.95;19.07
76519;BME280;67029;51.054;13.798;2023-09-12T10:12:02;100004.56;;;44.12;18.35
76519;BME280;67029;51.054;13.798;2023-09-12T10:14:38;100002.41;;;44.23;17.87
76519;BME280;67029;51.054;13.798;2023-09-12T10:17:08;100002.94;;;44.28;17.98
76519;BME280;67029;51.054;13.798;2023-09-12T10:19:38;100003.80;;;44.43;18.56
76519;BME280;67029;51.054;13.798;2023-09-12T10:22:16;100007.01;;;44.63;18.10
76519;BME280;67029;51.054;13.798;2023-09-12T10:24:35;100006.03;;;44.83;17.29
76519;BME280;67029;51.054;13.798;2023-09-12T10:27:05;100006.41;;;45.01;17.64
76519;BME280;67029;51.054;13.798;2023-09-12T10:29:35;100006.62;;;45.28;17.47
76519;BME280;67029;51.054;13.798;2023-09-12T10:32:13;100005.93;;;45.55;17.87
76519;BME280;67029;51.054;13.798;2023-09-12T10:34:41;100009.05;;;45.86;17.12
76519;BME280;67029;51.054;13.798;2023-09-12T10:39:40;100007.87;;;46.42;15.38
76519;BME280;67029;51.054;13.798;2023-09-12T10:42:07;100007.84;;;46.52;15.23
76519;BME280;67029;51.054;13.798;2023-09-12T10:44:38;100009.02;;;46.59;15.30
76519;BME280;67029;51.054;13.798;2023-09-12T10:47:08;100006.27;;;46.71;15.79
76519;BME280;67029;51.054;13.798;2023-09-12T10:49:39;100006.56;;;46.88;15.80
76519;BME280;67029;51.054;13.798;2023-09-12T10:52:09;99999.64;;;47.00;15.30
76519;BME280;67029;51.054;13.798;2023-09-12T10:54:40;99995.37;;;47.14;15.40
76519;BME280;67029;51.054;13.798;2023-09-12T10:57:11;99995.44;;;47.22;15.00
76519;BME280;67029;51.054;13.798;2023-09-12T11:02:28;99996.70;;;47.54;15.12
76519;BME280;67029;51.054;13.798;2023-09-12T11:04:45;99998.69;;;47.52;14.64
76519;BME280;67029;51.054;13.798;2023-09-12T11:07:33;99998.83;;;47.60;14.83
76519;BME280;67029;51.054;13.798;2023-09-12T11:10:06;99992.67;;;47.68;14.82
76519;BME280;67029;51.054;13.798;2023-09-12T11:17:23;99985.08;;;47.85;15.13
76519;BME280;67029;51.054;13.798;2023-09-12T11:19:48;99984.38;;;47.72;15.27
76519;BME280;67029;51.054;13.798;2023-09-12T11:22:35;99979.00;;;47.59;15.14
76519;BME280;67029;51.054;13.798;2023-09-12T11:24:45;99976.48;;;47.29;15.30
76519;BME280;67029;51.054;13.798;2023-09-12T11:27:18;99973.30;;;47.20;15.30
76519;BME280;67029;51.054;13.798;2023-09-12T11:29:48;99972.56;;;47.43;15.78
76519;BME280;67029;51.054;13.798;2023-09-12T11:32:38;99966.31;;;47.68;15.72
76519;BME280;67029;51.054;13.798;2023-09-12T11:34:48;99964.72;;;47.90;15.43
76519;BME280;67029;51.054;13.798;2023-09-12T11:37:23;99963.80;;;48.06;15.23
76519;BME280;67029;51.054;13.798;2023-09-12T11:39:49;99962.92;;;48.27;15.12
76519;BME280;67029;51.054;13.798;2023-09-12T11:42:18;99962.98;;;48.49;15.11
76519;BME280;67029;51.054;13.798;2023-09-12T11:44:54;99957.74;;;48.68;15.11
76519;BME280;67029;51.054;13.798;2023-09-12T11:47:32;99955.27;;;48.90;15.07
76519;BME280;67029;51.054;13.798;2023-09-12T11:49:51;99952.73;;;49.06;14.63
76519;BME280;67029;51.054;13.798;2023-09-12T11:52:20;99949.78;;;49.18;13.93
76519;BME280;67029;51.054;13.798;2023-09-12T11:54:53;99950.52;;;49.20;13.97
76519;BME280;67029;51.054;13.798;2023-09-12T11:59:58;99938.95;;;49.25;13.83
76519;BME280;67029;51.054;13.798;2023-09-12T12:02:24;99942.53;;;49.23;13.95
76519;BME280;67029;51.054;13.798;2023-09-12T12:07:25;99939.72;;;49.33;14.11
76519;BME280;67029;51.054;13.798;2023-09-12T12:09:59;99936.69;;;49.30;13.68
76519;BME280;67029;51.054;13.798;2023-09-12T12:12:37;99933.76;;;49.40;13.48
76519;BME280;67029;51.054;13.798;2023-09-12T12:14:55;99937.05;;;49.52;13.43
76519;BME280;67029;51.054;13.798;2023-09-12T12:17:45;99932.39;;;49.63;13.29
76519;BME280;67029;51.054;13.798;2023-09-12T12:20:00;99933.36;;;49.72;13.07
76519;BME280;67029;51.054;13.798;2023-09-12T12:22:26;99928.80;;;49.81;12.98
76519;BME280;67029;51.054;13.798;2023-09-12T12:25:07;99926.81;;;49.69;12.83
76519;BME280;67029;51.054;13.798;2023-09-12T12:29:56;99925.09;;;50.10;13.04
76519;BME280;67029;51.054;13.798;2023-09-12T12:32:27;99924.42;;;50.41;12.40
76519;BME280;67029;51.054;13.798;2023-09-12T12:34:57;99922.48;;;50.43;12.43
76519;BME280;67029;51.054;13.798;2023-09-12T12:37:30;99920.10;;;50.46;12.60
76519;BME280;67029;51.054;13.798;2023-09-12T12:39:58;99918.23;;;50.47;12.66
76519;BME280;67029;51.054;13.798;2023-09-12T12:42:33;99916.61;;;50.50;12.33
76519;BME280;67029;51.054;13.798;2023-09-12T12:44:58;99914.39;;;50.54;12.40
76519;BME280;67029;51.054;13.798;2023-09-12T12:47:28;99910.58;;;50.53;12.05
76519;BME280;67029;51.054;13.798;2023-09-12T12:49:58;99908.81;;;50.39;12.13
76519;BME280;67029;51.054;13.798;2023-09-12T12:52:29;99906.03;;;50.25;12.18
76519;BME280;67029;51.054;13.798;2023-09-12T12:55:05;99907.30;;;50.28;12.34
76519;BME280;67029;51.054;13.798;2023-09-12T12:57:29;99908.74;;;50.35;12.37
76519;BME280;67029;51.054;13.798;2023-09-12T12:59:59;99902.66;;;50.28;12.39
76519;BME280;67029;51.054;13.798;2023-09-12T13:02:29;99896.83;;;50.31;12.52
76519;BME280;67029;51.054;13.798;2023-09-12T13:04:59;99896.55;;;50.34;12.38
76519;BME280;67029;51.054;13.798;2023-09-12T13:07:29;99894.97;;;50.31;12.61
76519;BME280;67029;51.054;13.798;2023-09-12T13:09:59;99894.24;;;50.27;12.33
76519;BME280;67029;51.054;13.798;2023-09-12T13:12:29;99893.45;;;50.20;12.40
76519;BME280;67029;51.054;13.798;2023-09-12T13:14:59;99895.17;;;50.19;12.53
76519;BME280;67029;51.054;13.798;2023-09-12T13:17:30;99891.33;;;50.21;12.24
76519;BME280;67029;51.054;13.798;2023-09-12T13:19:59;99892.90;;;50.13;11.73
76519;BME280;67029;51.054;13.798;2023-09-12T13:22:29;99892.31;;;50.05;11.78
76519;BME280;67029;51.054;13.798;2023-09-12T13:25:00;99887.97;;;50.04;12.09
76519;BME280;67029;51.054;13.798;2023-09-12T13:27:30;99893.27;;;49.98;11.66
76519;BME280;67029;51.054;13.798;2023-09-12T13:30:00;99888.06;;;49.72;11.97
76519;BME280;67029;51.054;13.798;2023-09-12T13:32:30;99887.84;;;49.69;12.17
76519;BME280;67029;51.054;13.798;2023-09-12T13:35:00;99886.08;;;49.67;12.14
76519;BME280;67029;51.054;13.798;2023-09-12T13:37:30;99885.69;;;49.66;11.78
76519;BME280;67029;51.054;13.798;2023-09-12T13:40:00;99878.14;;;49.56;12.09
76519;BME280;67029;51.054;13.798;2023-09-12T13:42:30;99877.17;;;49.55;12.47
76519;BME280;67029;51.054;13.798;2023-09-12T13:45:00;99874.84;;;49.58;12.39
76519;BME280;67029;51.054;13.798;2023-09-12T13:47:30;99873.44;;;49.66;12.25
76519;BME280;67029;51.054;13.798;2023-09-12T13:50:00;99873.41;;;49.69;11.88
76519;BME280;67029;51.054;13.798;2023-09-12T13:52:30;99874.41;;;49.67;12.33
76519;BME280;67029;51.054;13.798;2023-09-12T13:55:00;99870.31;;;49.68;11.75